sensor_id;sensor_type;location;lat;lon;timestamp;P1;durP1;ratioP1;P2;durP2;ratioP2
21022;SDS011;10669;51.076;3.714;2022-08-21T00:01:40;6.17;;;2.63;;
21022;SDS011;10669;51.076;3.714;2022-08-21T00:04:08;9.70;;;3.20;;
21022;SDS011;10669;51.076;3.714;2022-08-21T00:06:38;5.67;;;2.40;;
21022;SDS011;10669;51.076;3.714;2022-08-21T00:09:06;9.00;;;3.50;;
21022;SDS011;10669;51.076;3.714;2022-08-21T00:11:36;7.50;;;3.30;;
21022;SDS011;10669;51.076;3.714;2022-08-21T00:14:04;11.80;;;3.23;;
21022;SDS011;10669;51.076;3.714;2022-08-21T00:19:03;8.33;;;2.90;;
21022;SDS011;10669;51.076;3.714;2022-08-21T00:21:29;7.67;;;2.90;;
21022;SDS011;10669;51.076;3.714;2022-08-21T00:24:00;12.80;;;3.37;;
21022;SDS011;10669;51.076;3.714;2022-08-21T00:26:28;7.07;;;2.43;;
21022;SDS011;10669;51.076;3.714;2022-08-21T00:28:53;8.37;;;2.83;;
21022;SDS011;10669;51.076;3.714;2022-08-21T00:31:20;11.17;;;2.63;;
21022;SDS011;10669;51.076;3.714;2022-08-21T00:33:48;5.13;;;2.57;;
21022;SDS011;10669;51.076;3.714;2022-08-21T00:36:13;8.33;;;2.40;;
21022;SDS011;10669;51.076;3.714;2022-08-21T00:38:40;7.57;;;2.60;;
21022;SDS011;10669;51.076;3.714;2022-08-21T00:41:08;8.87;;;2.70;;
21022;SDS011;10669;51.076;3.714;2022-08-21T00:43:38;8.77;;;2.47;;
21022;SDS011;10669;51.076;3.714;2022-08-21T00:46:05;6.97;;;2.40;;
21022;SDS011;10669;51.076;3.714;2022-08-21T00:48:32;12.77;;;2.63;;
21022;SDS011;10669;51.076;3.714;2022-08-21T00:53:35;6.33;;;2.60;;
21022;SDS011;10669;51.076;3.714;2022-08-21T00:56:03;8.50;;;2.80;;
21022;SDS011;10669;51.076;3.714;2022-08-21T00:58:33;9.23;;;2.40;;
21022;SDS011;10669;51.076;3.714;2022-08-21T01:01:01;7.13;;;2.50;;
21022;SDS011;10669;51.076;3.714;2022-08-21T01:03:29;8.10;;;2.17;;
21022;SDS011;10669;51.076;3.714;2022-08-21T01:05:56;11.60;;;2.77;;
21022;SDS011;10669;51.076;3.714;2022-08-21T01:08:22;10.57;;;2.47;;
21022;SDS011;10669;51.076;3.714;2022-08-21T01:10:49;10.23;;;2.43;;
21022;SDS011;10669;51.076;3.714;2022-08-21T01:13:17;11.27;;;2.77;;
21022;SDS011;10669;51.076;3.714;2022-08-21T01:15:45;6.50;;;2.60;;
21022;SDS011;10669;51.076;3.714;2022-08-21T01:18:14;7.40;;;2.23;;
21022;SDS011;10669;51.076;3.714;2022-08-21T01:23:30;8.70;;;2.20;;
21022;SDS011;10669;51.076;3.714;2022-08-21T01:25:57;6.13;;;2.30;;
21022;SDS011;10669;51.076;3.714;2022-08-21T01:28:25;7.20;;;2.53;;
21022;SDS011;10669;51.076;3.714;2022-08-21T01:30:52;7.87;;;2.67;;
21022;SDS011;10669;51.076;3.714;2022-08-21T01:33:20;7.70;;;2.83;;
21022;SDS011;10669;51.076;3.714;2022-08-21T01:35:50;8.10;;;3.10;;
21022;SDS011;10669;51.076;3.714;2022-08-21T01:38:17;7.63;;;2.40;;
21022;SDS011;10669;51.076;3.714;2022-08-21T01:40:44;7.70;;;2.47;;
21022;SDS011;10669;51.076;3.714;2022-08-21T01:43:12;8.90;;;2.73;;
21022;SDS011;10669;51.076;3.714;2022-08-21T01:45:38;8.80;;;2.80;;
21022;SDS011;10669;51.076;3.714;2022-08-21T01:48:04;8.97;;;2.80;;
21022;SDS011;10669;51.076;3.714;2022-08-21T01:50:32;8.53;;;3.13;;
21022;SDS011;10669;51.076;3.714;2022-08-21T01:55:27;10.20;;;2.80;;
21022;SDS011;10669;51.076;3.714;2022-08-21T01:57:56;6.53;;;2.60;;
21022;SDS011;10669;51.076;3.714;2022-08-21T02:00:23;8.60;;;2.83;;
21022;SDS011;10669;51.076;3.714;2022-08-21T02:02:51;10.57;;;2.53;;
21022;SDS011;10669;51.076;3.714;2022-08-21T02:05:18;8.73;;;2.37;;
21022;SDS011;10669;51.076;3.714;2022-08-21T02:07:51;12.13;;;2.63;;
21022;SDS011;10669;51.076;3.714;2022-08-21T02:10:26;12.77;;;2.70;;
21022;SDS011;10669;51.076;3.714;2022-08-21T02:12:54;9.43;;;2.53;;
21022;SDS011;10669;51.076;3.714;2022-08-21T02:15:23;11.17;;;2.70;;
21022;SDS011;10669;51.076;3.714;2022-08-21T02:17:51;13.47;;;3.20;;
21022;SDS011;10669;51.076;3.714;2022-08-21T02:20:26;9.37;;;2.80;;
21022;SDS011;10669;51.076;3.714;2022-08-21T02:22:58;7.23;;;2.23;;
21022;SDS011;10669;51.076;3.714;2022-08-21T02:25:25;7.60;;;2.30;;
21022;SDS011;10669;51.076;3.714;2022-08-21T02:27:54;7.70;;;2.60;;
21022;SDS011;10669;51.076;3.714;2022-08-21T02:30:24;11.87;;;2.70;;
21022;SDS011;10669;51.076;3.714;2022-08-21T02:32:57;10.90;;;2.83;;
21022;SDS011;10669;51.076;3.714;2022-08-21T02:35:25;9.07;;;2.30;;
21022;SDS011;10669;51.076;3.714;2022-08-21T02:37:54;9.43;;;3.13;;
21022;SDS011;10669;51.076;3.714;2022-08-21T02:40:22;12.10;;;3.00;;
21022;SDS011;10669;51.076;3.714;2022-08-21T02:42:53;11.93;;;2.97;;
21022;SDS011;10669;51.076;3.714;2022-08-21T02:45:19;9.43;;;2.23;;
21022;SDS011;10669;51.076;3.714;2022-08-21T02:47:53;13.60;;;2.87;;
21022;SDS011;10669;51.076;3.714;2022-08-21T02:50:22;7.20;;;2.33;;
21022;SDS011;10669;51.076;3.714;2022-08-21T02:52:50;9.73;;;3.20;;
21022;SDS011;10669;51.076;3.714;2022-08-21T02:55:19;10.60;;;2.80;;
21022;SDS011;10669;51.076;3.714;2022-08-21T02:57:47;7.83;;;3.27;;
21022;SDS011;10669;51.076;3.714;2022-08-21T03:00:13;12.40;;;2.50;;
21022;SDS011;10669;51.076;3.714;2022-08-21T03:02:40;7.97;;;2.80;;
21022;SDS011;10669;51.076;3.714;2022-08-21T03:05:08;12.57;;;2.70;;
21022;SDS011;10669;51.076;3.714;2022-08-21T03:07:36;7.63;;;2.30;;
21022;SDS011;10669;51.076;3.714;2022-08-21T03:10:04;9.97;;;2.50;;
21022;SDS011;10669;51.076;3.714;2022-08-21T03:12:31;10.23;;;2.90;;
21022;SDS011;10669;51.076;3.714;2022-08-21T03:14:57;6.83;;;2.57;;
21022;SDS011;10669;51.076;3.714;2022-08-21T03:17:26;10.53;;;2.50;;
21022;SDS011;10669;51.076;3.714;2022-08-21T03:19:53;10.67;;;2.77;;
21022;SDS011;10669;51.076;3.714;2022-08-21T03:22:19;9.67;;;2.50;;
21022;SDS011;10669;51.076;3.714;2022-08-21T03:24:44;4.27;;;2.13;;
21022;SDS011;10669;51.076;3.714;2022-08-21T03:27:11;7.93;;;2.77;;
21022;SDS011;10669;51.076;3.714;2022-08-21T03:29:40;8.53;;;2.47;;
21022;SDS011;10669;51.076;3.714;2022-08-21T03:32:06;11.87;;;3.33;;
21022;SDS011;10669;51.076;3.714;2022-08-21T03:34:34;6.37;;;2.70;;
21022;SDS011;10669;51.076;3.714;2022-08-21T03:37:07;5.80;;;2.50;;
21022;SDS011;10669;51.076;3.714;2022-08-21T03:39:36;8.60;;;2.13;;
21022;SDS011;10669;51.076;3.714;2022-08-21T03:42:02;7.97;;;2.97;;
21022;SDS011;10669;51.076;3.714;2022-08-21T03:44:29;9.47;;;3.00;;
21022;SDS011;10669;51.076;3.714;2022-08-21T03:46:57;9.33;;;3.10;;
21022;SDS011;10669;51.076;3.714;2022-08-21T03:51:53;8.20;;;2.73;;
21022;SDS011;10669;51.076;3.714;2022-08-21T03:54:20;10.63;;;2.97;;
21022;SDS011;10669;51.076;3.714;2022-08-21T03:56:46;9.60;;;3.03;;
21022;SDS011;10669;51.076;3.714;2022-08-21T03:59:13;12.93;;;3.73;;
21022;SDS011;10669;51.076;3.714;2022-08-21T04:01:39;11.83;;;3.07;;
21022;SDS011;10669;51.076;3.714;2022-08-21T04:04:05;9.97;;;3.17;;
21022;SDS011;10669;51.076;3.714;2022-08-21T04:06:32;11.47;;;3.40;;
21022;SDS011;10669;51.076;3.714;2022-08-21T04:08:57;10.37;;;2.90;;
21022;SDS011;10669;51.076;3.714;2022-08-21T04:11:23;8.10;;;2.57;;
21022;SDS011;10669;51.076;3.714;2022-08-21T04:13:51;11.00;;;3.07;;
21022;SDS011;10669;51.076;3.714;2022-08-21T04:16:16;14.67;;;2.87;;
21022;SDS011;10669;51.076;3.714;2022-08-21T04:18:45;13.70;;;3.07;;
21022;SDS011;10669;51.076;3.714;2022-08-21T04:21:11;10.00;;;3.13;;
21022;SDS011;10669;51.076;3.714;2022-08-21T04:23:40;7.40;;;2.70;;
21022;SDS011;10669;51.076;3.714;2022-08-21T04:26:07;8.60;;;2.53;;
21022;SDS011;10669;51.076;3.714;2022-08-21T04:28:34;14.60;;;3.27;;
21022;SDS011;10669;51.076;3.714;2022-08-21T04:30:59;10.17;;;2.83;;
21022;SDS011;10669;51.076;3.714;2022-08-21T04:33:25;9.73;;;3.37;;
21022;SDS011;10669;51.076;3.714;2022-08-21T04:35:52;9.23;;;2.70;;
21022;SDS011;10669;51.076;3.714;2022-08-21T04:38:18;9.77;;;3.50;;
21022;SDS011;10669;51.076;3.714;2022-08-21T04:40:45;9.63;;;3.30;;
21022;SDS011;10669;51.076;3.714;2022-08-21T04:43:13;13.30;;;3.30;;
21022;SDS011;10669;51.076;3.714;2022-08-21T04:48:11;15.27;;;3.60;;
21022;SDS011;10669;51.076;3.714;2022-08-21T04:55:58;9.63;;;3.97;;
21022;SDS011;10669;51.076;3.714;2022-08-21T04:58:29;10.10;;;3.53;;
21022;SDS011;10669;51.076;3.714;2022-08-21T05:00:58;16.33;;;4.13;;
21022;SDS011;10669;51.076;3.714;2022-08-21T05:03:27;9.43;;;3.77;;
21022;SDS011;10669;51.076;3.714;2022-08-21T05:05:56;9.23;;;3.40;;
21022;SDS011;10669;51.076;3.714;2022-08-21T05:08:23;12.90;;;3.60;;
21022;SDS011;10669;51.076;3.714;2022-08-21T05:10:52;10.43;;;3.47;;
21022;SDS011;10669;51.076;3.714;2022-08-21T05:13:17;10.60;;;3.63;;
21022;SDS011;10669;51.076;3.714;2022-08-21T05:15:43;13.07;;;4.03;;
21022;SDS011;10669;51.076;3.714;2022-08-21T05:18:09;8.10;;;3.30;;
21022;SDS011;10669;51.076;3.714;2022-08-21T05:20:35;12.00;;;3.43;;
21022;SDS011;10669;51.076;3.714;2022-08-21T05:23:05;16.97;;;4.13;;
21022;SDS011;10669;51.076;3.714;2022-08-21T05:25:36;9.10;;;3.43;;
21022;SDS011;10669;51.076;3.714;2022-08-21T05:28:03;15.73;;;3.57;;
21022;SDS011;10669;51.076;3.714;2022-08-21T05:30:29;12.90;;;4.40;;
21022;SDS011;10669;51.076;3.714;2022-08-21T05:32:56;9.83;;;4.03;;
21022;SDS011;10669;51.076;3.714;2022-08-21T05:35:22;11.60;;;4.67;;
21022;SDS011;10669;51.076;3.714;2022-08-21T05:37:48;10.23;;;4.17;;
21022;SDS011;10669;51.076;3.714;2022-08-21T05:40:15;10.83;;;4.40;;
21022;SDS011;10669;51.076;3.714;2022-08-21T05:42:42;18.33;;;4.33;;
21022;SDS011;10669;51.076;3.714;2022-08-21T05:45:07;14.13;;;4.40;;
21022;SDS011;10669;51.076;3.714;2022-08-21T05:47:33;13.17;;;4.53;;
21022;SDS011;10669;51.076;3.714;2022-08-21T05:50:00;16.57;;;4.30;;
21022;SDS011;10669;51.076;3.714;2022-08-21T05:52:25;11.57;;;3.80;;
21022;SDS011;10669;51.076;3.714;2022-08-21T05:54:51;11.50;;;4.83;;
21022;SDS011;10669;51.076;3.714;2022-08-21T05:57:19;12.47;;;4.03;;
21022;SDS011;10669;51.076;3.714;2022-08-21T05:59:47;11.20;;;4.83;;
21022;SDS011;10669;51.076;3.714;2022-08-21T06:02:16;14.40;;;4.40;;
21022;SDS011;10669;51.076;3.714;2022-08-21T06:04:45;10.93;;;4.00;;
21022;SDS011;10669;51.076;3.714;2022-08-21T06:07:12;15.30;;;4.03;;
21022;SDS011;10669;51.076;3.714;2022-08-21T06:09:37;12.10;;;4.03;;
21022;SDS011;10669;51.076;3.714;2022-08-21T06:14:34;14.97;;;4.63;;
21022;SDS011;10669;51.076;3.714;2022-08-21T06:17:02;14.87;;;3.83;;
21022;SDS011;10669;51.076;3.714;2022-08-21T06:19:29;11.07;;;4.00;;
21022;SDS011;10669;51.076;3.714;2022-08-21T06:24:24;14.77;;;5.50;;
21022;SDS011;10669;51.076;3.714;2022-08-21T06:26:51;12.47;;;4.53;;
21022;SDS011;10669;51.076;3.714;2022-08-21T06:29:17;16.23;;;4.17;;
21022;SDS011;10669;51.076;3.714;2022-08-21T06:31:45;13.90;;;4.63;;
21022;SDS011;10669;51.076;3.714;2022-08-21T06:34:13;9.77;;;3.83;;
21022;SDS011;10669;51.076;3.714;2022-08-21T06:36:40;16.77;;;4.53;;
21022;SDS011;10669;51.076;3.714;2022-08-21T06:39:06;14.73;;;3.97;;
21022;SDS011;10669;51.076;3.714;2022-08-21T06:41:32;13.27;;;5.20;;
21022;SDS011;10669;51.076;3.714;2022-08-21T06:43:59;15.40;;;3.93;;
21022;SDS011;10669;51.076;3.714;2022-08-21T06:46:31;12.20;;;4.13;;
21022;SDS011;10669;51.076;3.714;2022-08-21T06:48:58;10.00;;;4.80;;
21022;SDS011;10669;51.076;3.714;2022-08-21T06:51:25;13.73;;;4.50;;
21022;SDS011;10669;51.076;3.714;2022-08-21T06:53:52;14.07;;;4.47;;
21022;SDS011;10669;51.076;3.714;2022-08-21T06:56:20;12.77;;;3.80;;
21022;SDS011;10669;51.076;3.714;2022-08-21T06:58:46;13.37;;;4.20;;
21022;SDS011;10669;51.076;3.714;2022-08-21T07:01:12;16.27;;;3.77;;
21022;SDS011;10669;51.076;3.714;2022-08-21T07:03:44;13.47;;;3.93;;
21022;SDS011;10669;51.076;3.714;2022-08-21T07:06:11;16.87;;;4.77;;
21022;SDS011;10669;51.076;3.714;2022-08-21T07:08:38;10.57;;;3.87;;
21022;SDS011;10669;51.076;3.714;2022-08-21T07:11:09;10.73;;;3.93;;
21022;SDS011;10669;51.076;3.714;2022-08-21T07:13:41;11.90;;;3.83;;
21022;SDS011;10669;51.076;3.714;2022-08-21T07:16:07;12.57;;;3.37;;
21022;SDS011;10669;51.076;3.714;2022-08-21T07:18:34;10.83;;;3.60;;
21022;SDS011;10669;51.076;3.714;2022-08-21T07:21:04;11.47;;;4.10;;
21022;SDS011;10669;51.076;3.714;2022-08-21T07:23:35;11.50;;;3.20;;
21022;SDS011;10669;51.076;3.714;2022-08-21T07:26:04;10.33;;;3.63;;
21022;SDS011;10669;51.076;3.714;2022-08-21T07:28:33;13.33;;;3.53;;
21022;SDS011;10669;51.076;3.714;2022-08-21T07:31:01;13.33;;;3.57;;
21022;SDS011;10669;51.076;3.714;2022-08-21T07:33:28;9.20;;;3.37;;
21022;SDS011;10669;51.076;3.714;2022-08-21T07:35:55;14.30;;;3.63;;
21022;SDS011;10669;51.076;3.714;2022-08-21T07:38:23;8.57;;;3.30;;
21022;SDS011;10669;51.076;3.714;2022-08-21T07:40:49;6.07;;;3.00;;
21022;SDS011;10669;51.076;3.714;2022-08-21T07:43:23;10.67;;;3.37;;
21022;SDS011;10669;51.076;3.714;2022-08-21T07:45:49;17.03;;;4.13;;
21022;SDS011;10669;51.076;3.714;2022-08-21T07:48:15;9.40;;;3.17;;
21022;SDS011;10669;51.076;3.714;2022-08-21T07:50:42;14.67;;;3.90;;
21022;SDS011;10669;51.076;3.714;2022-08-21T07:53:09;14.40;;;3.53;;
21022;SDS011;10669;51.076;3.714;2022-08-21T07:55:36;15.33;;;3.97;;
21022;SDS011;10669;51.076;3.714;2022-08-21T07:58:01;9.27;;;3.47;;
21022;SDS011;10669;51.076;3.714;2022-08-21T08:00:27;11.03;;;3.80;;
21022;SDS011;10669;51.076;3.714;2022-08-21T08:02:56;13.02;;;3.55;;
21022;SDS011;10669;51.076;3.714;2022-08-21T08:05:24;14.30;;;4.50;;
21022;SDS011;10669;51.076;3.714;2022-08-21T08:07:53;13.60;;;4.20;;
21022;SDS011;10669;51.076;3.714;2022-08-21T08:10:19;13.80;;;3.67;;
21022;SDS011;10669;51.076;3.714;2022-08-21T08:12:46;11.10;;;4.53;;
21022;SDS011;10669;51.076;3.714;2022-08-21T08:15:16;13.93;;;4.03;;
21022;SDS011;10669;51.076;3.714;2022-08-21T08:17:44;11.20;;;4.53;;
21022;SDS011;10669;51.076;3.714;2022-08-21T08:20:11;12.30;;;4.53;;
21022;SDS011;10669;51.076;3.714;2022-08-21T08:22:38;15.10;;;4.27;;
21022;SDS011;10669;51.076;3.714;2022-08-21T08:25:05;11.57;;;4.57;;
21022;SDS011;10669;51.076;3.714;2022-08-21T08:27:32;15.20;;;5.45;;
21022;SDS011;10669;51.076;3.714;2022-08-21T08:29:58;13.33;;;4.40;;
21022;SDS011;10669;51.076;3.714;2022-08-21T08:32:23;15.55;;;4.15;;
21022;SDS011;10669;51.076;3.714;2022-08-21T08:34:49;16.67;;;4.55;;
21022;SDS011;10669;51.076;3.714;2022-08-21T08:37:16;15.93;;;5.10;;
21022;SDS011;10669;51.076;3.714;2022-08-21T08:39:43;14.85;;;4.45;;
21022;SDS011;10669;51.076;3.714;2022-08-21T08:42:20;11.75;;;4.28;;
21022;SDS011;10669;51.076;3.714;2022-08-21T08:44:57;14.68;;;4.47;;
21022;SDS011;10669;51.076;3.714;2022-08-21T08:47:29;11.00;;;3.97;;
21022;SDS011;10669;51.076;3.714;2022-08-21T08:52:44;14.55;;;4.13;;
21022;SDS011;10669;51.076;3.714;2022-08-21T08:55:21;14.50;;;4.10;;
21022;SDS011;10669;51.076;3.714;2022-08-21T08:57:53;18.42;;;3.50;;
21022;SDS011;10669;51.076;3.714;2022-08-21T09:00:20;14.80;;;3.83;;
21022;SDS011;10669;51.076;3.714;2022-08-21T09:02:48;13.85;;;3.72;;
21022;SDS011;10669;51.076;3.714;2022-08-21T09:05:27;12.95;;;3.63;;
21022;SDS011;10669;51.076;3.714;2022-08-21T09:16:38;8.75;;;2.83;;
21022;SDS011;10669;51.076;3.714;2022-08-21T09:27:19;15.25;;;4.20;;
21022;SDS011;10669;51.076;3.714;2022-08-21T09:29:47;12.90;;;3.30;;
21022;SDS011;10669;51.076;3.714;2022-08-21T09:32:29;16.45;;;3.17;;
21022;SDS011;10669;51.076;3.714;2022-08-21T09:34:58;9.82;;;3.00;;
21022;SDS011;10669;51.076;3.714;2022-08-21T09:37:34;13.88;;;2.60;;
21022;SDS011;10669;51.076;3.714;2022-08-21T09:40:20;8.40;;;2.40;;
21022;SDS011;10669;51.076;3.714;2022-08-21T09:45:49;12.30;;;3.20;;
21022;SDS011;10669;51.076;3.714;2022-08-21T09:48:28;15.23;;;3.60;;
21022;SDS011;10669;51.076;3.714;2022-08-21T09:51:05;12.68;;;3.15;;
21022;SDS011;10669;51.076;3.714;2022-08-21T09:53:32;15.02;;;3.35;;
21022;SDS011;10669;51.076;3.714;2022-08-21T09:56:03;15.50;;;2.90;;
21022;SDS011;10669;51.076;3.714;2022-08-21T09:58:59;12.80;;;2.88;;
21022;SDS011;10669;51.076;3.714;2022-08-21T10:01:25;12.95;;;3.63;;
21022;SDS011;10669;51.076;3.714;2022-08-21T10:04:07;15.98;;;3.03;;
21022;SDS011;10669;51.076;3.714;2022-08-21T10:06:34;12.25;;;3.05;;
21022;SDS011;10669;51.076;3.714;2022-08-21T10:09:04;8.27;;;2.40;;
21022;SDS011;10669;51.076;3.714;2022-08-21T10:11:37;14.45;;;2.92;;
21022;SDS011;10669;51.076;3.714;2022-08-21T10:16:41;13.32;;;2.53;;
21022;SDS011;10669;51.076;3.714;2022-08-21T10:22:02;10.05;;;2.55;;
21022;SDS011;10669;51.076;3.714;2022-08-21T10:24:57;11.70;;;3.00;;
21022;SDS011;10669;51.076;3.714;2022-08-21T10:38:39;8.88;;;2.70;;
21022;SDS011;10669;51.076;3.714;2022-08-21T10:46:45;15.25;;;2.78;;
21022;SDS011;10669;51.076;3.714;2022-08-21T10:52:25;10.27;;;2.60;;
21022;SDS011;10669;51.076;3.714;2022-08-21T10:55:16;8.40;;;2.50;;
21022;SDS011;10669;51.076;3.714;2022-08-21T10:57:51;9.40;;;2.00;;
21022;SDS011;10669;51.076;3.714;2022-08-21T11:00:26;8.35;;;2.28;;
21022;SDS011;10669;51.076;3.714;2022-08-21T11:03:04;12.10;;;2.40;;
21022;SDS011;10669;51.076;3.714;2022-08-21T11:08:17;12.13;;;2.30;;
21022;SDS011;10669;51.076;3.714;2022-08-21T11:10:52;11.73;;;2.47;;
21022;SDS011;10669;51.076;3.714;2022-08-21T11:13:26;12.13;;;2.30;;
21022;SDS011;10669;51.076;3.714;2022-08-21T11:16:07;6.32;;;1.70;;
21022;SDS011;10669;51.076;3.714;2022-08-21T11:19:02;12.30;;;2.70;;
21022;SDS011;10669;51.076;3.714;2022-08-21T11:27:00;7.95;;;1.85;;
21022;SDS011;10669;51.076;3.714;2022-08-21T11:29:28;12.43;;;2.45;;
21022;SDS011;10669;51.076;3.714;2022-08-21T11:32:07;8.80;;;2.15;;
21022;SDS011;10669;51.076;3.714;2022-08-21T11:43:30;15.05;;;2.83;;
21022;SDS011;10669;51.076;3.714;2022-08-21T11:52:28;11.15;;;4.18;;
21022;SDS011;10669;51.076;3.714;2022-08-21T12:02:38;9.85;;;2.72;;
21022;SDS011;10669;51.076;3.714;2022-08-21T12:05:20;9.18;;;2.10;;
21022;SDS011;10669;51.076;3.714;2022-08-21T12:08:02;16.80;;;2.03;;
21022;SDS011;10669;51.076;3.714;2022-08-21T12:10:38;12.82;;;3.15;;
21022;SDS011;10669;51.076;3.714;2022-08-21T12:15:51;10.43;;;2.50;;
21022;SDS011;10669;51.076;3.714;2022-08-21T12:21:03;12.75;;;2.33;;
21022;SDS011;10669;51.076;3.714;2022-08-21T12:23:48;8.27;;;2.15;;
21022;SDS011;10669;51.076;3.714;2022-08-21T12:26:48;15.25;;;2.30;;
21022;SDS011;10669;51.076;3.714;2022-08-21T12:29:26;13.18;;;2.70;;
21022;SDS011;10669;51.076;3.714;2022-08-21T12:35:01;7.65;;;2.10;;
21022;SDS011;10669;51.076;3.714;2022-08-21T12:37:25;10.38;;;2.25;;
21022;SDS011;10669;51.076;3.714;2022-08-21T12:40:14;9.18;;;2.95;;
21022;SDS011;10669;51.076;3.714;2022-08-21T12:42:50;9.68;;;2.10;;
21022;SDS011;10669;51.076;3.714;2022-08-21T12:50:46;11.63;;;2.50;;
21022;SDS011;10669;51.076;3.714;2022-08-21T12:56:11;12.48;;;2.60;;
21022;SDS011;10669;51.076;3.714;2022-08-21T12:58:41;11.02;;;2.40;;
21022;SDS011;10669;51.076;3.714;2022-08-21T13:03:57;11.70;;;2.50;;
21022;SDS011;10669;51.076;3.714;2022-08-21T13:06:25;12.88;;;2.70;;
21022;SDS011;10669;51.076;3.714;2022-08-21T13:08:57;14.43;;;2.25;;
21022;SDS011;10669;51.076;3.714;2022-08-21T13:11:29;7.75;;;2.53;;
21022;SDS011;10669;51.076;3.714;2022-08-21T13:13:56;12.75;;;2.58;;
21022;SDS011;10669;51.076;3.714;2022-08-21T13:16:24;12.73;;;2.83;;
21022;SDS011;10669;51.076;3.714;2022-08-21T13:18:59;11.57;;;2.10;;
21022;SDS011;10669;51.076;3.714;2022-08-21T13:21:34;12.90;;;2.20;;
21022;SDS011;10669;51.076;3.714;2022-08-21T13:24:39;11.63;;;2.95;;
21022;SDS011;10669;51.076;3.714;2022-08-21T13:27:00;10.02;;;2.53;;
21022;SDS011;10669;51.076;3.714;2022-08-21T13:29:30;14.90;;;2.70;;
21022;SDS011;10669;51.076;3.714;2022-08-21T13:32:02;7.35;;;1.92;;
21022;SDS011;10669;51.076;3.714;2022-08-21T13:34:33;9.60;;;2.42;;
21022;SDS011;10669;51.076;3.714;2022-08-21T13:37:06;8.50;;;2.17;;
21022;SDS011;10669;51.076;3.714;2022-08-21T13:39:33;7.88;;;2.17;;
21022;SDS011;10669;51.076;3.714;2022-08-21T13:42:00;12.18;;;2.55;;
21022;SDS011;10669;51.076;3.714;2022-08-21T13:44:34;11.15;;;2.58;;
21022;SDS011;10669;51.076;3.714;2022-08-21T13:47:09;9.90;;;2.30;;
21022;SDS011;10669;51.076;3.714;2022-08-21T13:49:39;11.48;;;2.47;;
21022;SDS011;10669;51.076;3.714;2022-08-21T13:52:18;11.55;;;2.28;;
21022;SDS011;10669;51.076;3.714;2022-08-21T13:54:56;13.55;;;2.25;;
21022;SDS011;10669;51.076;3.714;2022-08-21T13:57:25;10.38;;;2.38;;
21022;SDS011;10669;51.076;3.714;2022-08-21T14:00:12;7.68;;;2.53;;
21022;SDS011;10669;51.076;3.714;2022-08-21T14:02:45;10.57;;;2.70;;
21022;SDS011;10669;51.076;3.714;2022-08-21T14:05:21;12.45;;;2.65;;
21022;SDS011;10669;51.076;3.714;2022-08-21T14:08:30;14.35;;;2.40;;
21022;SDS011;10669;51.076;3.714;2022-08-21T14:10:57;14.77;;;2.92;;
21022;SDS011;10669;51.076;3.714;2022-08-21T14:18:52;8.73;;;2.55;;
21022;SDS011;10669;51.076;3.714;2022-08-21T14:21:34;9.23;;;3.40;;
21022;SDS011;10669;51.076;3.714;2022-08-21T14:24:11;11.70;;;2.80;;
21022;SDS011;10669;51.076;3.714;2022-08-21T14:26:48;7.60;;;2.30;;
21022;SDS011;10669;51.076;3.714;2022-08-21T14:29:17;8.60;;;2.28;;
21022;SDS011;10669;51.076;3.714;2022-08-21T14:31:55;11.73;;;2.55;;
21022;SDS011;10669;51.076;3.714;2022-08-21T14:36:58;8.93;;;2.65;;
21022;SDS011;10669;51.076;3.714;2022-08-21T14:39:26;12.77;;;2.42;;
21022;SDS011;10669;51.076;3.714;2022-08-21T14:41:52;9.65;;;2.40;;
21022;SDS011;10669;51.076;3.714;2022-08-21T14:44:22;8.57;;;2.13;;
21022;SDS011;10669;51.076;3.714;2022-08-21T14:46:50;10.15;;;2.38;;
21022;SDS011;10669;51.076;3.714;2022-08-21T14:49:16;9.48;;;2.33;;
21022;SDS011;10669;51.076;3.714;2022-08-21T14:51:45;8.73;;;2.35;;
21022;SDS011;10669;51.076;3.714;2022-08-21T14:54:10;9.98;;;2.60;;
21022;SDS011;10669;51.076;3.714;2022-08-21T14:56:39;8.82;;;2.33;;
21022;SDS011;10669;51.076;3.714;2022-08-21T15:01:38;8.32;;;2.50;;
21022;SDS011;10669;51.076;3.714;2022-08-21T15:04:12;8.02;;;2.38;;
21022;SDS011;10669;51.076;3.714;2022-08-21T15:06:40;11.38;;;2.30;;
21022;SDS011;10669;51.076;3.714;2022-08-21T15:09:08;10.05;;;2.40;;
21022;SDS011;10669;51.076;3.714;2022-08-21T15:11:34;15.07;;;3.05;;
21022;SDS011;10669;51.076;3.714;2022-08-21T15:14:04;6.95;;;2.45;;
21022;SDS011;10669;51.076;3.714;2022-08-21T15:16:33;10.82;;;2.78;;
21022;SDS011;10669;51.076;3.714;2022-08-21T15:21:27;10.05;;;2.60;;
21022;SDS011;10669;51.076;3.714;2022-08-21T15:23:54;6.63;;;1.92;;
21022;SDS011;10669;51.076;3.714;2022-08-21T15:26:23;8.25;;;2.28;;
21022;SDS011;10669;51.076;3.714;2022-08-21T15:28:50;9.23;;;2.33;;
21022;SDS011;10669;51.076;3.714;2022-08-21T15:31:19;9.43;;;2.30;;
21022;SDS011;10669;51.076;3.714;2022-08-21T15:36:15;9.52;;;2.58;;
21022;SDS011;10669;51.076;3.714;2022-08-21T15:38:43;8.05;;;2.30;;
21022;SDS011;10669;51.076;3.714;2022-08-21T15:41:11;9.65;;;2.30;;
21022;SDS011;10669;51.076;3.714;2022-08-21T15:43:51;8.73;;;2.55;;
21022;SDS011;10669;51.076;3.714;2022-08-21T15:46:21;10.32;;;2.60;;
21022;SDS011;10669;51.076;3.714;2022-08-21T15:48:50;10.95;;;2.30;;
21022;SDS011;10669;51.076;3.714;2022-08-21T15:51:16;11.57;;;3.13;;
21022;SDS011;10669;51.076;3.714;2022-08-21T15:53:52;12.18;;;2.60;;
21022;SDS011;10669;51.076;3.714;2022-08-21T15:56:27;9.63;;;2.50;;
21022;SDS011;10669;51.076;3.714;2022-08-21T15:59:04;11.00;;;3.00;;
21022;SDS011;10669;51.076;3.714;2022-08-21T16:04:09;10.30;;;2.50;;
21022;SDS011;10669;51.076;3.714;2022-08-21T16:06:40;9.98;;;2.33;;
21022;SDS011;10669;51.076;3.714;2022-08-21T16:09:07;8.48;;;2.30;;
21022;SDS011;10669;51.076;3.714;2022-08-21T16:11:33;8.55;;;2.25;;
21022;SDS011;10669;51.076;3.714;2022-08-21T16:13:58;16.77;;;5.55;;
21022;SDS011;10669;51.076;3.714;2022-08-21T16:16:24;13.25;;;3.13;;
21022;SDS011;10669;51.076;3.714;2022-08-21T16:18:50;11.23;;;2.00;;
21022;SDS011;10669;51.076;3.714;2022-08-21T16:21:17;14.48;;;3.95;;
21022;SDS011;10669;51.076;3.714;2022-08-21T16:23:43;9.25;;;2.70;;
21022;SDS011;10669;51.076;3.714;2022-08-21T16:26:09;8.07;;;2.20;;
21022;SDS011;10669;51.076;3.714;2022-08-21T16:28:39;10.13;;;2.40;;
21022;SDS011;10669;51.076;3.714;2022-08-21T16:31:07;9.57;;;2.63;;
21022;SDS011;10669;51.076;3.714;2022-08-21T16:33:35;13.25;;;3.42;;
21022;SDS011;10669;51.076;3.714;2022-08-21T16:36:03;11.70;;;3.10;;
21022;SDS011;10669;51.076;3.714;2022-08-21T16:38:30;6.20;;;1.73;;
21022;SDS011;10669;51.076;3.714;2022-08-21T16:41:02;13.18;;;2.55;;
21022;SDS011;10669;51.076;3.714;2022-08-21T16:43:32;12.70;;;3.63;;
21022;SDS011;10669;51.076;3.714;2022-08-21T16:45:59;15.45;;;2.33;;
21022;SDS011;10669;51.076;3.714;2022-08-21T16:48:25;16.08;;;3.50;;
21022;SDS011;10669;51.076;3.714;2022-08-21T16:50:53;8.65;;;2.10;;
21022;SDS011;10669;51.076;3.714;2022-08-21T16:53:19;8.20;;;2.22;;
21022;SDS011;10669;51.076;3.714;2022-08-21T16:55:45;10.10;;;2.88;;
21022;SDS011;10669;51.076;3.714;2022-08-21T16:58:28;11.65;;;2.70;;
21022;SDS011;10669;51.076;3.714;2022-08-21T17:00:56;8.35;;;2.47;;
21022;SDS011;10669;51.076;3.714;2022-08-21T17:03:25;12.23;;;2.63;;
21022;SDS011;10669;51.076;3.714;2022-08-21T17:05:56;7.13;;;2.60;;
21022;SDS011;10669;51.076;3.714;2022-08-21T17:08:21;11.85;;;2.92;;
21022;SDS011;10669;51.076;3.714;2022-08-21T17:10:48;12.38;;;3.33;;
21022;SDS011;10669;51.076;3.714;2022-08-21T17:13:14;12.30;;;2.92;;
21022;SDS011;10669;51.076;3.714;2022-08-21T17:15:41;9.43;;;2.30;;
21022;SDS011;10669;51.076;3.714;2022-08-21T17:18:08;17.25;;;3.40;;